Terminal Aerodrome Forecast
Issued by NWS Green Bay, WI

Home | Current Version | Previous Version | Text Only | Print | Product List | Glossary Off
Versions: 1 2 3 4 5 6 7 8 9 10 11 12 13 14 15 16 17 18 19 20 21

000
FTUS43 KGRB 220520
TAFGRB
TAF
KGRB 220520Z 2206/2306 25009G15KT P6SM OVC025
      TEMPO 2206/2210 -RA BKN018
     FM221000 25009G14KT P6SM OVC020
     FM221300 25010G17KT P6SM BKN030
     FM221800 25011G20KT P6SM VCSH SCT030 BKN050
     FM222300 25007KT P6SM BKN070
     FM230500 VRB03KT P6SM BKN090=

USA.gov is the U.S. government's official web portal to all federal, state and local government web resources and services.